createdAt,value
2019-03-04T00:03:00.397Z,2.70
2019-03-04T00:06:24.854Z,2.83
2019-03-04T00:09:31.324Z,2.03
2019-03-04T00:12:38.512Z,2.47
2019-03-04T00:15:44.737Z,2.33
2019-03-04T00:18:53.057Z,2.60
2019-03-04T00:22:00.246Z,2.33
2019-03-04T00:25:06.994Z,2.53
2019-03-04T00:28:13.353Z,2.60
2019-03-04T00:31:19.824Z,2.30
2019-03-04T00:34:26.453Z,2.10
2019-03-04T00:37:33.352Z,2.77
2019-03-04T00:40:40.435Z,2.33
2019-03-04T00:43:46.928Z,2.07
2019-03-04T00:46:53.501Z,2.03
2019-03-04T00:50:00.326Z,2.20
2019-03-04T00:53:06.922Z,2.10
2019-03-04T00:56:13.512Z,2.23
2019-03-04T00:59:20.309Z,2.03
2019-03-04T01:02:26.860Z,2.37
2019-03-04T01:05:34.124Z,2.07
2019-03-04T01:08:40.709Z,1.90
2019-03-04T01:11:48.614Z,1.93
2019-03-04T01:14:55.184Z,3.50
2019-03-04T01:18:01.454Z,1.73
2019-03-04T01:21:08.536Z,1.77
2019-03-04T01:24:15.137Z,1.57
2019-03-04T01:27:21.660Z,1.73
2019-03-04T01:30:28.242Z,1.80
2019-03-04T01:33:34.589Z,2.23
2019-03-04T01:36:41.491Z,2.20
2019-03-04T01:39:48.078Z,1.60
2019-03-04T01:42:54.310Z,2.10
2019-03-04T01:46:01.089Z,1.70
2019-03-04T01:49:07.514Z,1.43
2019-03-04T01:52:13.785Z,2.60
2019-03-04T01:55:20.297Z,1.93
2019-03-04T01:58:26.767Z,2.07
2019-03-04T02:01:33.627Z,1.90
2019-03-04T02:04:40.224Z,1.53
2019-03-04T02:07:46.637Z,1.67
2019-03-04T02:10:53.207Z,1.67
2019-03-04T02:14:00.797Z,1.67
2019-03-04T02:17:07.324Z,1.70
2019-03-04T02:20:14.870Z,1.60
2019-03-04T02:23:21.337Z,1.60
2019-03-04T02:26:32.944Z,1.90
2019-03-04T02:29:39.535Z,1.67
2019-03-04T02:32:46.296Z,1.60
2019-03-04T02:35:52.987Z,1.97
2019-03-04T02:38:59.571Z,2.30
2019-03-04T02:42:06.019Z,2.10
2019-03-04T02:45:14.286Z,1.90
2019-03-04T02:48:20.577Z,1.77
2019-03-04T02:51:26.863Z,1.63
2019-03-04T02:54:33.756Z,1.50
2019-03-04T02:57:40.413Z,1.77
2019-03-04T03:00:47.049Z,2.17
2019-03-04T03:03:53.363Z,1.90
2019-03-04T03:06:59.841Z,1.70
2019-03-04T03:10:08.091Z,1.90
2019-03-04T03:13:14.552Z,1.50
2019-03-04T03:16:21.301Z,1.50
2019-03-04T03:19:27.700Z,1.77
2019-03-04T03:22:34.299Z,1.37
2019-03-04T03:25:41.972Z,1.80
2019-03-04T03:28:48.778Z,1.20
2019-03-04T03:31:55.010Z,1.40
2019-03-04T03:35:01.486Z,2.07
2019-03-04T03:38:08.697Z,1.70
2019-03-04T03:41:15.449Z,1.80
2019-03-04T03:44:22.430Z,1.70
2019-03-04T03:47:29.109Z,1.67
2019-03-04T03:50:35.765Z,1.33
2019-03-04T03:53:42.137Z,1.73
2019-03-04T03:56:48.712Z,1.50
2019-03-04T03:59:55.226Z,1.40
2019-03-04T04:03:01.680Z,2.17
2019-03-04T04:06:07.923Z,1.53
2019-03-04T04:09:14.314Z,1.77
2019-03-04T04:12:21.894Z,1.63
2019-03-04T04:15:28.257Z,2.10
2019-03-04T04:18:34.552Z,1.87
2019-03-04T04:21:40.992Z,1.47
2019-03-04T04:24:47.199Z,1.80
2019-03-04T04:27:53.680Z,1.67
2019-03-04T04:31:00.203Z,1.70
2019-03-04T04:34:06.999Z,1.67
2019-03-04T04:37:13.697Z,1.50
2019-03-04T04:40:19.816Z,1.83
2019-03-04T04:43:26.384Z,1.80
2019-03-04T04:47:06.874Z,1.60
2019-03-04T04:50:14.065Z,1.63
2019-03-04T04:53:21.285Z,1.50
2019-03-04T04:56:28.107Z,2.03
2019-03-04T04:59:35.049Z,1.60
2019-03-04T05:02:41.721Z,1.70
2019-03-04T05:05:48.341Z,1.80
2019-03-04T05:08:55.033Z,2.00
2019-03-04T05:12:01.992Z,1.60
2019-03-04T05:15:09.665Z,1.80
2019-03-04T05:18:16.231Z,1.80
2019-03-04T05:21:22.989Z,1.67
2019-03-04T05:24:29.817Z,1.30
2019-03-04T05:27:37.531Z,1.20
2019-03-04T05:30:44.094Z,1.30
2019-03-04T05:33:50.809Z,1.80
2019-03-04T05:36:57.713Z,1.57
2019-03-04T05:40:04.758Z,1.80
2019-03-04T05:43:11.712Z,1.83
2019-03-04T05:46:18.374Z,1.50
2019-03-04T05:49:24.864Z,1.90
2019-03-04T05:52:31.419Z,1.40
2019-03-04T05:55:37.724Z,1.73
2019-03-04T05:58:44.365Z,1.33
2019-03-04T06:02:03.508Z,2.20
2019-03-04T06:05:10.243Z,1.83
2019-03-04T06:08:16.957Z,1.53
2019-03-04T06:11:23.751Z,1.90
2019-03-04T06:14:30.398Z,2.27
2019-03-04T06:17:37.729Z,1.57
2019-03-04T06:20:44.315Z,1.53
2019-03-04T06:23:51.020Z,1.67
2019-03-04T06:26:57.395Z,1.70
2019-03-04T06:30:04.151Z,1.60
2019-03-04T06:33:10.719Z,1.20
2019-03-04T06:36:17.694Z,1.20
2019-03-04T06:39:24.302Z,1.30
2019-03-04T06:42:30.820Z,1.50
2019-03-04T06:45:37.508Z,1.43
2019-03-04T06:48:43.956Z,1.17
2019-03-04T06:51:51.446Z,1.63
2019-03-04T06:55:46.808Z,1.40
2019-03-04T06:58:57.905Z,1.83
2019-03-04T07:02:09.675Z,1.27
2019-03-04T07:05:45.721Z,1.30
2019-03-04T07:09:13.928Z,2.17
2019-03-04T07:12:21.458Z,1.90
2019-03-04T07:15:28.197Z,1.40
2019-03-04T07:18:34.041Z,1.70
2019-03-04T07:21:40.596Z,2.00
2019-03-04T07:24:47.335Z,1.33
2019-03-04T07:27:53.030Z,1.40
2019-03-04T07:30:58.920Z,1.63
2019-03-04T07:34:05.242Z,1.40
2019-03-04T07:37:11.146Z,1.53
2019-03-04T07:40:17.744Z,1.30
2019-03-04T07:43:23.542Z,1.20
2019-03-04T07:46:29.769Z,1.77
2019-03-04T07:49:35.672Z,1.60
2019-03-04T07:52:41.236Z,1.50
2019-03-04T07:55:47.197Z,1.40
2019-03-04T07:58:53.370Z,1.43
2019-03-04T08:01:59.437Z,1.30
2019-03-04T08:05:05.993Z,1.47
2019-03-04T08:08:12.294Z,1.60
2019-03-04T08:11:49.942Z,1.70
2019-03-04T08:14:57.126Z,1.70
2019-03-04T08:18:03.607Z,1.83
2019-03-04T08:21:10.394Z,1.50
2019-03-04T08:24:17.144Z,1.90
2019-03-04T08:27:23.992Z,1.63
2019-03-04T08:30:29.822Z,1.70
2019-03-04T08:33:35.825Z,1.30
2019-03-04T08:36:41.873Z,1.40
2019-03-04T08:39:48.249Z,1.40
2019-03-04T08:42:54.751Z,1.43
2019-03-04T08:46:01.185Z,1.50
2019-03-04T08:49:06.993Z,1.00
2019-03-04T08:52:12.969Z,1.10
2019-03-04T08:55:19.320Z,1.20
2019-03-04T08:58:25.054Z,1.30
2019-03-04T09:01:31.884Z,0.87
2019-03-04T09:04:37.884Z,1.30
2019-03-04T09:07:43.952Z,0.70
2019-03-04T09:10:50.063Z,0.90
2019-03-04T09:13:56.491Z,1.20
2019-03-04T09:17:02.425Z,1.10
2019-03-04T09:20:09.035Z,1.10
2019-03-04T09:23:15.177Z,1.03
2019-03-04T09:26:21.378Z,1.10
2019-03-04T09:29:28.584Z,1.13
2019-03-04T09:32:34.360Z,1.00
2019-03-04T09:35:40.664Z,0.70
2019-03-04T09:38:46.612Z,1.20
2019-03-04T09:41:54.585Z,1.27
2019-03-04T09:45:00.327Z,0.87
2019-03-04T09:48:06.173Z,0.80
2019-03-04T09:51:13.052Z,1.10
2019-03-04T09:54:18.907Z,0.90
2019-03-04T09:57:24.761Z,1.23
2019-03-04T10:00:41.967Z,1.40
2019-03-04T10:04:31.699Z,1.17
2019-03-04T10:08:00.816Z,0.97
2019-03-04T10:11:21.727Z,0.80
2019-03-04T10:15:08.036Z,1.43
2019-03-04T10:18:38.922Z,1.23
2019-03-04T10:21:53.242Z,1.10
2019-03-04T10:25:45.156Z,0.83
2019-03-04T10:29:30.577Z,0.87
2019-03-04T10:33:00.923Z,0.67
2019-03-04T10:36:56.279Z,0.37
2019-03-04T10:40:34.225Z,0.50
2019-03-04T10:43:51.988Z,0.47
2019-03-04T10:46:59.399Z,0.57
2019-03-04T10:50:05.660Z,0.30
2019-03-04T10:53:12.047Z,0.30
2019-03-04T10:56:17.712Z,0.60
2019-03-04T10:59:23.545Z,0.40
2019-03-04T11:02:29.475Z,0.50
2019-03-04T11:05:35.612Z,0.40
2019-03-04T11:08:41.599Z,0.40
2019-03-04T11:11:49.323Z,0.30
2019-03-04T11:14:54.963Z,0.30
2019-03-04T11:18:02.153Z,0.80
2019-03-04T11:21:07.847Z,0.93
2019-03-04T11:24:14.424Z,0.50
2019-03-04T11:27:20.561Z,0.87
2019-03-04T11:30:29.702Z,0.60
2019-03-04T11:33:35.849Z,0.73
2019-03-04T11:36:42.222Z,0.70
2019-03-04T11:40:10.957Z,0.60
2019-03-04T11:43:16.556Z,0.60
2019-03-04T11:46:25.040Z,0.70
2019-03-04T11:49:31.688Z,0.97
2019-03-04T11:52:37.813Z,0.80
2019-03-04T11:55:43.995Z,0.93
2019-03-04T11:58:49.435Z,0.50
2019-03-04T12:01:56.716Z,0.60
2019-03-04T12:05:03.806Z,0.70
2019-03-04T12:08:09.707Z,0.50
2019-03-04T12:11:19.721Z,0.40
2019-03-04T12:14:25.927Z,0.63
2019-03-04T12:17:32.311Z,0.60
2019-03-04T12:20:38.272Z,0.67
2019-03-04T12:23:44.138Z,0.43
2019-03-04T12:26:51.083Z,0.47
2019-03-04T12:29:56.972Z,0.43
2019-03-04T12:33:04.359Z,0.63
2019-03-04T12:36:10.514Z,0.87
2019-03-04T12:39:16.998Z,0.60
2019-03-04T12:42:23.029Z,0.53
2019-03-04T12:45:34.484Z,0.60
2019-03-04T12:48:37.570Z,0.37
2019-03-04T12:51:45.306Z,0.50
2019-03-04T12:54:51.752Z,0.97
2019-03-04T12:57:58.456Z,0.67
2019-03-04T13:01:04.563Z,0.40
2019-03-04T13:04:10.913Z,0.50
2019-03-04T13:07:16.877Z,0.67
2019-03-04T13:10:23.510Z,0.37
2019-03-04T13:13:30.420Z,0.43
2019-03-04T13:16:36.639Z,0.60
2019-03-04T13:19:43.019Z,0.30
2019-03-04T13:22:49.452Z,0.40
2019-03-04T13:25:55.400Z,0.40
2019-03-04T13:29:01.032Z,0.40
2019-03-04T13:32:07.721Z,0.30
2019-03-04T13:35:23.989Z,0.40
2019-03-04T13:38:22.942Z,0.40
2019-03-04T13:41:29.628Z,0.40
2019-03-04T13:44:35.646Z,0.60
2019-03-04T13:47:41.930Z,0.40
2019-03-04T13:50:48.274Z,0.40
2019-03-04T13:53:54.543Z,0.57
2019-03-04T13:57:00.539Z,0.40
2019-03-04T14:00:08.353Z,0.70
2019-03-04T14:03:14.619Z,0.70
2019-03-04T14:06:20.415Z,0.67
2019-03-04T14:09:26.490Z,0.47
2019-03-04T14:12:33.902Z,0.50
2019-03-04T14:15:40.490Z,0.50
2019-03-04T14:18:46.378Z,0.90
2019-03-04T14:21:52.461Z,0.60
2019-03-04T14:24:58.168Z,0.40
2019-03-04T14:28:04.528Z,0.60
2019-03-04T14:31:10.447Z,0.70
2019-03-04T14:34:17.394Z,0.67
2019-03-04T14:37:23.311Z,0.90
2019-03-04T14:40:29.344Z,0.67
2019-03-04T14:43:36.013Z,1.43
2019-03-04T14:46:42.250Z,1.03
2019-03-04T14:49:48.534Z,0.57
2019-03-04T14:52:58.180Z,0.73
2019-03-04T14:56:04.838Z,0.50
2019-03-04T14:59:11.637Z,0.63
2019-03-04T15:02:18.020Z,1.40
2019-03-04T15:05:24.611Z,1.57
2019-03-04T15:08:31.484Z,0.80
2019-03-04T15:11:39.042Z,0.70
2019-03-04T15:14:45.553Z,0.50
2019-03-04T15:17:51.926Z,0.80
2019-03-04T15:20:58.663Z,0.30
2019-03-04T15:24:05.213Z,0.40
2019-03-04T15:27:11.741Z,0.60
2019-03-04T15:30:20.443Z,0.40
2019-03-04T15:33:27.787Z,0.47
2019-03-04T15:36:34.702Z,0.50
2019-03-04T15:39:41.972Z,0.50
2019-03-04T15:42:47.814Z,0.50
2019-03-04T15:45:55.776Z,0.50
2019-03-04T15:49:02.487Z,0.40
2019-03-04T15:52:09.268Z,0.60
2019-03-04T15:55:15.937Z,1.40
2019-03-04T15:58:23.178Z,0.57
2019-03-04T16:01:29.985Z,0.37
2019-03-04T16:04:36.941Z,0.67
2019-03-04T16:07:45.292Z,1.13
2019-03-04T16:10:53.316Z,1.00
2019-03-04T16:14:03.626Z,0.83
2019-03-04T16:17:10.407Z,0.60
2019-03-04T16:20:18.924Z,1.10
2019-03-04T16:23:25.680Z,0.30
2019-03-04T16:26:33.886Z,0.30
2019-03-04T16:29:40.746Z,0.40
2019-03-04T16:32:49.024Z,0.30
2019-03-04T16:35:55.669Z,0.27
2019-03-04T16:39:04.756Z,0.30
2019-03-04T16:42:12.223Z,0.60
2019-03-04T16:45:18.581Z,0.50
2019-03-04T16:48:24.562Z,0.47
2019-03-04T16:51:31.584Z,0.70
2019-03-04T16:54:39.627Z,0.60
2019-03-04T16:57:46.001Z,0.43
2019-03-04T17:00:52.933Z,0.80
2019-03-04T17:03:59.055Z,1.00
2019-03-04T17:07:06.446Z,0.90
2019-03-04T17:10:13.405Z,1.20
2019-03-04T17:13:19.838Z,1.83
2019-03-04T17:16:27.412Z,1.87
2019-03-04T17:19:33.650Z,1.87
2019-03-04T17:22:40.405Z,1.30
2019-03-04T17:25:48.718Z,1.67
2019-03-04T17:28:54.881Z,1.40
2019-03-04T17:32:03.610Z,1.20
2019-03-04T17:35:10.587Z,1.83
2019-03-04T17:38:17.030Z,2.00
2019-03-04T17:41:24.991Z,1.70
2019-03-04T17:44:33.100Z,1.80
2019-03-04T17:47:39.809Z,2.00
2019-03-04T17:50:46.296Z,1.90
2019-03-04T17:53:52.459Z,2.43
2019-03-04T17:56:58.677Z,2.10
2019-03-04T18:00:07.470Z,2.60
2019-03-04T18:03:13.489Z,2.43
2019-03-04T18:06:19.606Z,2.27
2019-03-04T18:09:25.719Z,2.27
2019-03-04T18:12:37.752Z,4.40
2019-03-04T18:15:44.341Z,11.20
2019-03-04T18:18:50.430Z,15.23
2019-03-04T18:21:57.361Z,5.17
2019-03-04T18:25:03.461Z,3.23
2019-03-04T18:28:36.844Z,3.07
2019-03-04T18:31:50.899Z,3.00
2019-03-04T18:35:26.406Z,3.10
2019-03-04T18:39:25.124Z,2.93
2019-03-04T18:43:05.666Z,2.80
2019-03-04T18:46:44.687Z,2.97
2019-03-04T18:49:51.860Z,2.80
2019-03-04T18:52:58.257Z,4.10
2019-03-04T18:56:06.179Z,2.70
2019-03-04T18:59:12.742Z,2.77
2019-03-04T19:02:19.088Z,2.93
2019-03-04T19:05:26.091Z,2.57
2019-03-04T19:08:32.351Z,2.93
2019-03-04T19:11:39.322Z,2.57
2019-03-04T19:14:46.176Z,3.03
2019-03-04T19:17:52.758Z,2.13
2019-03-04T19:20:59.236Z,2.33
2019-03-04T19:24:05.534Z,2.53
2019-03-04T19:27:12.024Z,5.43
2019-03-04T19:30:18.353Z,2.70
2019-03-04T19:33:24.228Z,2.90
2019-03-04T19:36:33.498Z,3.00
2019-03-04T19:39:40.075Z,2.80
2019-03-04T19:42:46.534Z,3.03
2019-03-04T19:45:53.527Z,3.50
2019-03-04T19:48:59.746Z,3.27
2019-03-04T19:52:05.261Z,3.27
2019-03-04T19:55:12.826Z,3.27
2019-03-04T19:58:19.675Z,3.47
2019-03-04T20:01:27.101Z,2.70
2019-03-04T20:04:34.695Z,2.77
2019-03-04T20:07:40.999Z,2.90
2019-03-04T20:10:47.171Z,3.30
2019-03-04T20:13:53.730Z,2.90
2019-03-04T20:17:01.649Z,2.60
2019-03-04T20:20:10.375Z,2.87
2019-03-04T20:23:16.393Z,2.80
2019-03-04T20:26:22.419Z,2.60
2019-03-04T20:29:28.367Z,2.83
2019-03-04T20:32:37.643Z,2.17
2019-03-04T20:35:45.875Z,2.20
2019-03-04T20:38:52.485Z,2.80
2019-03-04T20:42:00.710Z,2.97
2019-03-04T20:45:08.349Z,2.83
2019-03-04T20:48:14.893Z,2.30
2019-03-04T20:51:21.772Z,2.83
2019-03-04T20:54:30.519Z,2.83
2019-03-04T20:57:37.554Z,2.57
2019-03-04T21:00:45.194Z,2.50
2019-03-04T21:03:51.225Z,2.93
2019-03-04T21:06:57.449Z,2.83
2019-03-04T21:10:03.709Z,2.70
2019-03-04T21:13:16.217Z,2.60
2019-03-04T21:16:24.264Z,2.60
2019-03-04T21:19:30.498Z,2.97
2019-03-04T21:22:36.151Z,2.37
2019-03-04T21:25:50.998Z,2.80
2019-03-04T21:29:15.329Z,2.40
2019-03-04T21:32:36.834Z,2.70
2019-03-04T21:36:38.177Z,2.17
2019-03-04T21:39:48.282Z,2.63
2019-03-04T21:43:01.293Z,2.17
2019-03-04T21:46:45.822Z,3.00
2019-03-04T21:49:55.045Z,2.63
2019-03-04T21:53:08.933Z,2.50
2019-03-04T21:56:54.131Z,1.93
2019-03-04T22:00:00.460Z,2.00
2019-03-04T22:03:20.890Z,1.87
2019-03-04T22:06:27.004Z,2.70
2019-03-04T22:09:32.868Z,1.90
2019-03-04T22:12:39.537Z,2.00
2019-03-04T22:15:46.303Z,2.00
2019-03-04T22:18:52.417Z,1.70
2019-03-04T22:21:58.432Z,1.43
2019-03-04T22:25:04.448Z,1.67
2019-03-04T22:28:11.748Z,1.63
2019-03-04T22:31:17.587Z,1.73
2019-03-04T22:34:23.796Z,1.70
2019-03-04T22:37:29.859Z,1.57
2019-03-04T22:40:35.695Z,1.50
2019-03-04T22:43:41.636Z,1.70
2019-03-04T22:46:47.525Z,1.33
2019-03-04T22:49:54.374Z,1.50
2019-03-04T22:53:00.254Z,1.30
2019-03-04T22:56:06.419Z,1.23
2019-03-04T22:59:12.720Z,1.20
2019-03-04T23:02:20.087Z,1.30
2019-03-04T23:05:26.329Z,1.27
2019-03-04T23:08:32.129Z,1.80
2019-03-04T23:11:39.413Z,1.37
2019-03-04T23:14:45.807Z,1.30
2019-03-04T23:17:51.949Z,1.80
2019-03-04T23:20:57.743Z,1.60
2019-03-04T23:24:03.657Z,1.40
2019-03-04T23:27:09.493Z,1.47
2019-03-04T23:30:15.856Z,1.20
2019-03-04T23:33:21.332Z,1.80
2019-03-04T23:36:27.585Z,1.57
2019-03-04T23:39:35.822Z,1.37
2019-03-04T23:42:41.744Z,1.30
2019-03-04T23:45:49.027Z,1.60
2019-03-04T23:48:55.460Z,2.30
2019-03-04T23:52:02.179Z,1.60
2019-03-04T23:55:07.960Z,1.47
2019-03-04T23:58:13.733Z,1.60
